sensor_id;sensor_type;location;lat;lon;timestamp;P1;durP1;ratioP1;P2;durP2;ratioP2
5762;SDS011;2906;53.282;9.508;2022-12-20T00:00:59;29.77;;;10.88;;
5762;SDS011;2906;53.282;9.508;2022-12-20T00:02:02;27.73;;;10.18;;
5762;SDS011;2906;53.282;9.508;2022-12-20T00:03:04;25.60;;;10.15;;
5762;SDS011;2906;53.282;9.508;2022-12-20T00:04:05;25.08;;;10.70;;
5762;SDS011;2906;53.282;9.508;2022-12-20T00:05:07;24.95;;;10.32;;
5762;SDS011;2906;53.282;9.508;2022-12-20T00:06:09;26.70;;;10.38;;
5762;SDS011;2906;53.282;9.508;2022-12-20T00:07:13;28.92;;;9.60;;
5762;SDS011;2906;53.282;9.508;2022-12-20T00:08:14;24.92;;;9.80;;
5762;SDS011;2906;53.282;9.508;2022-12-20T00:09:17;22.30;;;9.80;;
5762;SDS011;2906;53.282;9.508;2022-12-20T00:10:18;23.55;;;9.43;;
5762;SDS011;2906;53.282;9.508;2022-12-20T00:11:21;23.30;;;9.70;;
5762;SDS011;2906;53.282;9.508;2022-12-20T00:12:22;23.38;;;9.77;;
5762;SDS011;2906;53.282;9.508;2022-12-20T00:13:25;26.40;;;10.23;;
5762;SDS011;2906;53.282;9.508;2022-12-20T00:14:26;23.48;;;9.63;;
5762;SDS011;2906;53.282;9.508;2022-12-20T00:15:28;25.60;;;10.40;;
5762;SDS011;2906;53.282;9.508;2022-12-20T00:16:30;24.13;;;9.95;;
5762;SDS011;2906;53.282;9.508;2022-12-20T00:17:32;22.63;;;9.38;;
5762;SDS011;2906;53.282;9.508;2022-12-20T00:18:34;23.77;;;11.43;;
5762;SDS011;2906;53.282;9.508;2022-12-20T00:19:36;23.73;;;9.93;;
5762;SDS011;2906;53.282;9.508;2022-12-20T00:20:38;31.80;;;10.48;;
5762;SDS011;2906;53.282;9.508;2022-12-20T00:21:40;26.10;;;10.25;;
5762;SDS011;2906;53.282;9.508;2022-12-20T00:22:42;21.42;;;9.00;;
5762;SDS011;2906;53.282;9.508;2022-12-20T00:23:45;24.67;;;9.80;;
5762;SDS011;2906;53.282;9.508;2022-12-20T00:24:46;25.40;;;10.57;;
5762;SDS011;2906;53.282;9.508;2022-12-20T00:25:48;28.52;;;10.05;;
5762;SDS011;2906;53.282;9.508;2022-12-20T00:26:49;23.23;;;10.20;;
5762;SDS011;2906;53.282;9.508;2022-12-20T00:27:54;20.83;;;9.10;;
5762;SDS011;2906;53.282;9.508;2022-12-20T00:28:55;23.50;;;10.70;;
5762;SDS011;2906;53.282;9.508;2022-12-20T00:29:57;23.45;;;9.60;;
5762;SDS011;2906;53.282;9.508;2022-12-20T00:30:59;23.52;;;9.43;;
5762;SDS011;2906;53.282;9.508;2022-12-20T00:32:01;27.98;;;10.65;;
5762;SDS011;2906;53.282;9.508;2022-12-20T00:33:02;23.77;;;9.50;;
5762;SDS011;2906;53.282;9.508;2022-12-20T00:34:04;24.90;;;9.48;;
5762;SDS011;2906;53.282;9.508;2022-12-20T00:35:06;20.67;;;8.95;;
5762;SDS011;2906;53.282;9.508;2022-12-20T00:36:08;27.95;;;9.75;;
5762;SDS011;2906;53.282;9.508;2022-12-20T00:37:10;24.10;;;9.73;;
5762;SDS011;2906;53.282;9.508;2022-12-20T00:38:13;31.35;;;10.85;;
5762;SDS011;2906;53.282;9.508;2022-12-20T00:39:15;26.27;;;10.15;;
5762;SDS011;2906;53.282;9.508;2022-12-20T00:40:17;26.55;;;8.70;;
5762;SDS011;2906;53.282;9.508;2022-12-20T00:41:19;28.75;;;10.07;;
5762;SDS011;2906;53.282;9.508;2022-12-20T00:42:21;24.75;;;9.50;;
5762;SDS011;2906;53.282;9.508;2022-12-20T00:43:23;25.13;;;9.82;;
5762;SDS011;2906;53.282;9.508;2022-12-20T00:44:26;22.73;;;10.02;;
5762;SDS011;2906;53.282;9.508;2022-12-20T00:45:30;22.65;;;9.95;;
5762;SDS011;2906;53.282;9.508;2022-12-20T00:46:31;22.77;;;9.05;;
5762;SDS011;2906;53.282;9.508;2022-12-20T00:47:34;21.73;;;8.82;;
5762;SDS011;2906;53.282;9.508;2022-12-20T00:48:36;25.95;;;9.32;;
5762;SDS011;2906;53.282;9.508;2022-12-20T00:49:38;25.02;;;9.82;;
5762;SDS011;2906;53.282;9.508;2022-12-20T00:50:40;21.67;;;8.57;;
5762;SDS011;2906;53.282;9.508;2022-12-20T00:51:42;26.10;;;9.82;;
5762;SDS011;2906;53.282;9.508;2022-12-20T00:52:49;23.02;;;8.45;;
5762;SDS011;2906;53.282;9.508;2022-12-20T00:53:52;24.30;;;9.50;;
5762;SDS011;2906;53.282;9.508;2022-12-20T00:54:54;23.17;;;9.63;;
5762;SDS011;2906;53.282;9.508;2022-12-20T00:56:02;23.42;;;9.57;;
5762;SDS011;2906;53.282;9.508;2022-12-20T00:57:05;24.33;;;9.90;;
5762;SDS011;2906;53.282;9.508;2022-12-20T00:58:08;26.33;;;9.00;;
5762;SDS011;2906;53.282;9.508;2022-12-20T00:59:11;20.67;;;9.80;;
5762;SDS011;2906;53.282;9.508;2022-12-20T01:00:12;24.00;;;9.20;;
5762;SDS011;2906;53.282;9.508;2022-12-20T01:01:16;23.30;;;9.93;;
5762;SDS011;2906;53.282;9.508;2022-12-20T01:02:17;21.40;;;9.07;;
5762;SDS011;2906;53.282;9.508;2022-12-20T01:03:20;21.35;;;8.30;;
5762;SDS011;2906;53.282;9.508;2022-12-20T01:04:25;24.35;;;9.10;;
5762;SDS011;2906;53.282;9.508;2022-12-20T01:05:27;22.25;;;9.13;;
5762;SDS011;2906;53.282;9.508;2022-12-20T01:06:29;25.42;;;9.57;;
5762;SDS011;2906;53.282;9.508;2022-12-20T01:07:32;26.25;;;9.88;;
5762;SDS011;2906;53.282;9.508;2022-12-20T01:08:42;24.80;;;9.40;;
5762;SDS011;2906;53.282;9.508;2022-12-20T01:09:51;27.42;;;9.05;;
5762;SDS011;2906;53.282;9.508;2022-12-20T01:10:59;23.65;;;9.05;;
5762;SDS011;2906;53.282;9.508;2022-12-20T01:12:02;24.45;;;8.60;;
5762;SDS011;2906;53.282;9.508;2022-12-20T01:13:03;20.35;;;8.32;;
5762;SDS011;2906;53.282;9.508;2022-12-20T01:14:07;22.70;;;8.30;;
5762;SDS011;2906;53.282;9.508;2022-12-20T01:15:08;25.35;;;9.95;;
5762;SDS011;2906;53.282;9.508;2022-12-20T01:16:12;20.80;;;9.02;;
5762;SDS011;2906;53.282;9.508;2022-12-20T01:17:20;31.83;;;10.52;;
5762;SDS011;2906;53.282;9.508;2022-12-20T01:18:35;21.58;;;8.07;;
5762;SDS011;2906;53.282;9.508;2022-12-20T01:19:38;24.80;;;9.40;;
5762;SDS011;2906;53.282;9.508;2022-12-20T01:20:43;20.30;;;7.95;;
5762;SDS011;2906;53.282;9.508;2022-12-20T01:21:44;22.95;;;9.20;;
5762;SDS011;2906;53.282;9.508;2022-12-20T01:22:51;22.85;;;8.85;;
5762;SDS011;2906;53.282;9.508;2022-12-20T01:23:55;19.52;;;7.93;;
5762;SDS011;2906;53.282;9.508;2022-12-20T01:24:58;23.00;;;9.40;;
5762;SDS011;2906;53.282;9.508;2022-12-20T01:26:00;22.25;;;8.95;;
5762;SDS011;2906;53.282;9.508;2022-12-20T01:27:03;19.95;;;8.13;;
5762;SDS011;2906;53.282;9.508;2022-12-20T01:28:05;20.15;;;8.05;;
5762;SDS011;2906;53.282;9.508;2022-12-20T01:29:07;21.00;;;7.82;;
5762;SDS011;2906;53.282;9.508;2022-12-20T01:30:09;22.58;;;7.93;;
5762;SDS011;2906;53.282;9.508;2022-12-20T01:31:12;21.20;;;8.75;;
5762;SDS011;2906;53.282;9.508;2022-12-20T01:32:15;23.58;;;8.40;;
5762;SDS011;2906;53.282;9.508;2022-12-20T01:33:19;21.02;;;8.43;;
5762;SDS011;2906;53.282;9.508;2022-12-20T01:34:21;20.65;;;9.00;;
5762;SDS011;2906;53.282;9.508;2022-12-20T01:35:25;25.38;;;9.30;;
5762;SDS011;2906;53.282;9.508;2022-12-20T01:36:27;21.02;;;8.18;;
5762;SDS011;2906;53.282;9.508;2022-12-20T01:37:30;22.10;;;8.18;;
5762;SDS011;2906;53.282;9.508;2022-12-20T01:38:32;18.75;;;8.10;;
5762;SDS011;2906;53.282;9.508;2022-12-20T01:39:34;23.20;;;8.60;;
5762;SDS011;2906;53.282;9.508;2022-12-20T01:40:39;21.50;;;7.32;;
5762;SDS011;2906;53.282;9.508;2022-12-20T01:41:41;21.60;;;7.68;;
5762;SDS011;2906;53.282;9.508;2022-12-20T01:42:43;26.58;;;9.75;;
5762;SDS011;2906;53.282;9.508;2022-12-20T01:43:47;23.88;;;9.07;;
5762;SDS011;2906;53.282;9.508;2022-12-20T01:44:57;22.83;;;8.30;;
5762;SDS011;2906;53.282;9.508;2022-12-20T01:46:02;22.50;;;8.10;;
5762;SDS011;2906;53.282;9.508;2022-12-20T01:47:03;20.25;;;8.07;;
5762;SDS011;2906;53.282;9.508;2022-12-20T01:48:05;22.70;;;8.30;;
5762;SDS011;2906;53.282;9.508;2022-12-20T01:49:08;19.88;;;8.77;;
5762;SDS011;2906;53.282;9.508;2022-12-20T01:50:18;21.92;;;8.60;;
5762;SDS011;2906;53.282;9.508;2022-12-20T01:51:19;23.63;;;8.05;;
5762;SDS011;2906;53.282;9.508;2022-12-20T01:52:23;22.77;;;9.23;;
5762;SDS011;2906;53.282;9.508;2022-12-20T01:53:31;21.63;;;8.25;;
5762;SDS011;2906;53.282;9.508;2022-12-20T01:54:34;22.77;;;9.23;;
5762;SDS011;2906;53.282;9.508;2022-12-20T01:55:39;19.92;;;7.85;;
5762;SDS011;2906;53.282;9.508;2022-12-20T01:56:41;25.17;;;7.40;;
5762;SDS011;2906;53.282;9.508;2022-12-20T01:57:44;19.85;;;7.72;;
5762;SDS011;2906;53.282;9.508;2022-12-20T01:58:48;20.25;;;8.30;;
5762;SDS011;2906;53.282;9.508;2022-12-20T01:59:51;26.45;;;8.98;;
5762;SDS011;2906;53.282;9.508;2022-12-20T02:00:54;24.02;;;8.57;;
5762;SDS011;2906;53.282;9.508;2022-12-20T02:01:57;26.40;;;8.20;;
5762;SDS011;2906;53.282;9.508;2022-12-20T02:03:02;19.98;;;7.95;;
5762;SDS011;2906;53.282;9.508;2022-12-20T02:04:05;20.50;;;8.00;;
5762;SDS011;2906;53.282;9.508;2022-12-20T02:05:11;20.33;;;8.25;;
5762;SDS011;2906;53.282;9.508;2022-12-20T02:06:15;21.45;;;8.43;;
5762;SDS011;2906;53.282;9.508;2022-12-20T02:07:23;22.73;;;7.75;;
5762;SDS011;2906;53.282;9.508;2022-12-20T02:08:25;24.52;;;8.90;;
5762;SDS011;2906;53.282;9.508;2022-12-20T02:09:27;22.98;;;7.70;;
5762;SDS011;2906;53.282;9.508;2022-12-20T02:10:34;20.75;;;8.30;;
5762;SDS011;2906;53.282;9.508;2022-12-20T02:11:48;20.83;;;7.75;;
5762;SDS011;2906;53.282;9.508;2022-12-20T02:12:51;22.25;;;8.63;;
5762;SDS011;2906;53.282;9.508;2022-12-20T02:14:00;21.63;;;8.63;;
5762;SDS011;2906;53.282;9.508;2022-12-20T02:15:10;19.10;;;8.45;;
5762;SDS011;2906;53.282;9.508;2022-12-20T02:16:19;21.20;;;8.40;;
5762;SDS011;2906;53.282;9.508;2022-12-20T02:17:26;25.17;;;9.40;;
5762;SDS011;2906;53.282;9.508;2022-12-20T02:18:33;23.00;;;8.55;;
5762;SDS011;2906;53.282;9.508;2022-12-20T02:19:46;21.50;;;7.45;;
5762;SDS011;2906;53.282;9.508;2022-12-20T02:20:54;19.98;;;8.20;;
5762;SDS011;2906;53.282;9.508;2022-12-20T02:21:59;21.77;;;8.20;;
5762;SDS011;2906;53.282;9.508;2022-12-20T02:23:22;20.40;;;7.50;;
5762;SDS011;2906;53.282;9.508;2022-12-20T02:24:43;25.95;;;8.35;;
5762;SDS011;2906;53.282;9.508;2022-12-20T02:25:52;24.10;;;7.68;;
5762;SDS011;2906;53.282;9.508;2022-12-20T02:27:02;21.50;;;8.07;;
5762;SDS011;2906;53.282;9.508;2022-12-20T02:28:09;20.52;;;7.40;;
5762;SDS011;2906;53.282;9.508;2022-12-20T02:29:20;21.83;;;7.50;;
5762;SDS011;2906;53.282;9.508;2022-12-20T02:30:25;24.40;;;10.00;;
5762;SDS011;2906;53.282;9.508;2022-12-20T02:31:28;19.92;;;7.30;;
5762;SDS011;2906;53.282;9.508;2022-12-20T02:32:32;21.08;;;7.85;;
5762;SDS011;2906;53.282;9.508;2022-12-20T02:33:36;18.98;;;7.78;;
5762;SDS011;2906;53.282;9.508;2022-12-20T02:34:39;22.02;;;8.13;;
5762;SDS011;2906;53.282;9.508;2022-12-20T02:35:41;20.73;;;7.80;;
5762;SDS011;2906;53.282;9.508;2022-12-20T02:36:43;20.95;;;8.52;;
5762;SDS011;2906;53.282;9.508;2022-12-20T02:37:46;20.55;;;7.20;;
5762;SDS011;2906;53.282;9.508;2022-12-20T02:38:49;22.00;;;9.30;;
5762;SDS011;2906;53.282;9.508;2022-12-20T02:39:50;20.05;;;8.07;;
5762;SDS011;2906;53.282;9.508;2022-12-20T02:40:54;24.50;;;8.27;;
5762;SDS011;2906;53.282;9.508;2022-12-20T02:41:58;21.02;;;7.70;;
5762;SDS011;2906;53.282;9.508;2022-12-20T02:43:03;18.98;;;7.30;;
5762;SDS011;2906;53.282;9.508;2022-12-20T02:44:25;19.50;;;7.68;;
5762;SDS011;2906;53.282;9.508;2022-12-20T02:45:44;19.23;;;7.80;;
5762;SDS011;2906;53.282;9.508;2022-12-20T02:46:46;20.88;;;7.45;;
5762;SDS011;2906;53.282;9.508;2022-12-20T02:47:50;22.30;;;7.80;;
5762;SDS011;2906;53.282;9.508;2022-12-20T02:48:53;26.02;;;8.20;;
5762;SDS011;2906;53.282;9.508;2022-12-20T02:49:56;24.02;;;8.32;;
5762;SDS011;2906;53.282;9.508;2022-12-20T02:50:58;19.20;;;8.00;;
5762;SDS011;2906;53.282;9.508;2022-12-20T02:52:00;24.83;;;8.25;;
5762;SDS011;2906;53.282;9.508;2022-12-20T02:53:03;23.73;;;8.65;;
5762;SDS011;2906;53.282;9.508;2022-12-20T02:54:04;24.20;;;8.55;;
5762;SDS011;2906;53.282;9.508;2022-12-20T02:55:07;19.33;;;8.25;;
5762;SDS011;2906;53.282;9.508;2022-12-20T02:56:09;21.88;;;7.28;;
5762;SDS011;2906;53.282;9.508;2022-12-20T02:57:15;23.40;;;7.75;;
5762;SDS011;2906;53.282;9.508;2022-12-20T02:58:20;21.45;;;8.27;;
5762;SDS011;2906;53.282;9.508;2022-12-20T02:59:27;21.00;;;8.38;;
5762;SDS011;2906;53.282;9.508;2022-12-20T03:00:31;21.90;;;7.90;;
5762;SDS011;2906;53.282;9.508;2022-12-20T03:01:36;22.95;;;8.23;;
5762;SDS011;2906;53.282;9.508;2022-12-20T03:02:39;22.08;;;8.40;;
5762;SDS011;2906;53.282;9.508;2022-12-20T03:03:56;24.90;;;8.77;;
5762;SDS011;2906;53.282;9.508;2022-12-20T03:04:58;21.73;;;7.75;;
5762;SDS011;2906;53.282;9.508;2022-12-20T03:06:00;21.52;;;8.10;;
5762;SDS011;2906;53.282;9.508;2022-12-20T03:07:03;19.10;;;7.22;;
5762;SDS011;2906;53.282;9.508;2022-12-20T03:08:05;22.35;;;8.32;;
5762;SDS011;2906;53.282;9.508;2022-12-20T03:09:07;19.40;;;6.88;;
5762;SDS011;2906;53.282;9.508;2022-12-20T03:10:08;21.83;;;8.45;;
5762;SDS011;2906;53.282;9.508;2022-12-20T03:11:11;25.73;;;8.80;;
5762;SDS011;2906;53.282;9.508;2022-12-20T03:12:13;20.95;;;7.40;;
5762;SDS011;2906;53.282;9.508;2022-12-20T03:13:16;20.33;;;8.60;;
5762;SDS011;2906;53.282;9.508;2022-12-20T03:14:17;21.35;;;8.68;;
5762;SDS011;2906;53.282;9.508;2022-12-20T03:15:20;23.17;;;8.30;;
5762;SDS011;2906;53.282;9.508;2022-12-20T03:16:21;26.33;;;7.45;;
5762;SDS011;2906;53.282;9.508;2022-12-20T03:17:25;24.38;;;8.98;;
5762;SDS011;2906;53.282;9.508;2022-12-20T03:18:26;20.42;;;8.18;;
5762;SDS011;2906;53.282;9.508;2022-12-20T03:19:28;23.23;;;8.50;;
5762;SDS011;2906;53.282;9.508;2022-12-20T03:20:30;25.10;;;8.82;;
5762;SDS011;2906;53.282;9.508;2022-12-20T03:21:32;21.90;;;8.48;;
5762;SDS011;2906;53.282;9.508;2022-12-20T03:22:33;26.17;;;8.23;;
5762;SDS011;2906;53.282;9.508;2022-12-20T03:23:36;23.27;;;7.63;;
5762;SDS011;2906;53.282;9.508;2022-12-20T03:24:37;19.90;;;7.93;;
5762;SDS011;2906;53.282;9.508;2022-12-20T03:25:39;20.10;;;7.90;;
5762;SDS011;2906;53.282;9.508;2022-12-20T03:26:40;22.00;;;8.10;;
5762;SDS011;2906;53.282;9.508;2022-12-20T03:27:43;22.25;;;8.63;;
5762;SDS011;2906;53.282;9.508;2022-12-20T03:28:44;28.65;;;7.88;;
5762;SDS011;2906;53.282;9.508;2022-12-20T03:29:49;21.13;;;8.13;;
5762;SDS011;2906;53.282;9.508;2022-12-20T03:30:52;21.92;;;8.57;;
5762;SDS011;2906;53.282;9.508;2022-12-20T03:31:55;19.15;;;7.75;;
5762;SDS011;2906;53.282;9.508;2022-12-20T03:33:03;20.70;;;7.57;;
5762;SDS011;2906;53.282;9.508;2022-12-20T03:34:10;35.55;;;8.68;;
5762;SDS011;2906;53.282;9.508;2022-12-20T03:35:14;25.33;;;9.20;;
5762;SDS011;2906;53.282;9.508;2022-12-20T03:36:16;19.55;;;8.50;;
5762;SDS011;2906;53.282;9.508;2022-12-20T03:37:22;21.70;;;8.88;;
5762;SDS011;2906;53.282;9.508;2022-12-20T03:38:24;20.45;;;8.63;;
5762;SDS011;2906;53.282;9.508;2022-12-20T03:39:25;22.17;;;8.63;;
5762;SDS011;2906;53.282;9.508;2022-12-20T03:40:28;25.23;;;8.10;;
5762;SDS011;2906;53.282;9.508;2022-12-20T03:41:31;20.85;;;8.55;;
5762;SDS011;2906;53.282;9.508;2022-12-20T03:42:33;27.98;;;8.85;;
5762;SDS011;2906;53.282;9.508;2022-12-20T03:43:34;24.23;;;8.75;;
5762;SDS011;2906;53.282;9.508;2022-12-20T03:44:37;20.33;;;8.35;;
5762;SDS011;2906;53.282;9.508;2022-12-20T03:45:38;22.95;;;9.02;;
5762;SDS011;2906;53.282;9.508;2022-12-20T03:46:40;21.85;;;8.55;;
5762;SDS011;2906;53.282;9.508;2022-12-20T03:47:41;21.63;;;8.90;;
5762;SDS011;2906;53.282;9.508;2022-12-20T03:48:45;22.23;;;9.55;;
5762;SDS011;2906;53.282;9.508;2022-12-20T03:49:46;22.83;;;8.73;;
5762;SDS011;2906;53.282;9.508;2022-12-20T03:50:48;22.70;;;9.00;;
5762;SDS011;2906;53.282;9.508;2022-12-20T03:51:50;21.52;;;8.27;;
5762;SDS011;2906;53.282;9.508;2022-12-20T03:52:52;24.40;;;8.40;;
5762;SDS011;2906;53.282;9.508;2022-12-20T03:53:53;21.60;;;8.93;;
5762;SDS011;2906;53.282;9.508;2022-12-20T03:54:55;24.20;;;10.32;;
5762;SDS011;2906;53.282;9.508;2022-12-20T03:55:57;21.92;;;8.90;;
5762;SDS011;2906;53.282;9.508;2022-12-20T03:56:59;23.05;;;8.80;;
5762;SDS011;2906;53.282;9.508;2022-12-20T03:58:00;19.50;;;8.38;;
5762;SDS011;2906;53.282;9.508;2022-12-20T03:59:03;22.98;;;8.00;;
5762;SDS011;2906;53.282;9.508;2022-12-20T04:00:05;22.90;;;8.10;;
5762;SDS011;2906;53.282;9.508;2022-12-20T04:01:19;26.38;;;8.95;;
5762;SDS011;2906;53.282;9.508;2022-12-20T04:02:22;19.70;;;8.70;;
5762;SDS011;2906;53.282;9.508;2022-12-20T04:03:23;24.55;;;9.05;;
5762;SDS011;2906;53.282;9.508;2022-12-20T04:04:29;23.98;;;8.18;;
5762;SDS011;2906;53.282;9.508;2022-12-20T04:05:30;24.42;;;8.48;;
5762;SDS011;2906;53.282;9.508;2022-12-20T04:06:33;20.85;;;8.48;;
5762;SDS011;2906;53.282;9.508;2022-12-20T04:07:36;26.15;;;9.20;;
5762;SDS011;2906;53.282;9.508;2022-12-20T04:08:40;20.58;;;8.70;;
5762;SDS011;2906;53.282;9.508;2022-12-20T04:09:42;20.83;;;8.63;;
5762;SDS011;2906;53.282;9.508;2022-12-20T04:10:44;22.15;;;8.82;;
5762;SDS011;2906;53.282;9.508;2022-12-20T04:12:04;20.10;;;7.57;;
5762;SDS011;2906;53.282;9.508;2022-12-20T04:13:06;25.23;;;9.05;;
5762;SDS011;2906;53.282;9.508;2022-12-20T04:14:07;20.88;;;8.30;;
5762;SDS011;2906;53.282;9.508;2022-12-20T04:15:11;26.35;;;9.88;;
5762;SDS011;2906;53.282;9.508;2022-12-20T04:16:18;26.73;;;8.55;;
5762;SDS011;2906;53.282;9.508;2022-12-20T04:17:20;24.92;;;8.57;;
5762;SDS011;2906;53.282;9.508;2022-12-20T04:18:22;24.70;;;9.00;;
5762;SDS011;2906;53.282;9.508;2022-12-20T04:19:25;23.63;;;8.95;;
5762;SDS011;2906;53.282;9.508;2022-12-20T04:20:30;23.92;;;9.32;;
5762;SDS011;2906;53.282;9.508;2022-12-20T04:21:32;19.92;;;8.55;;
5762;SDS011;2906;53.282;9.508;2022-12-20T04:22:44;23.27;;;8.48;;
5762;SDS011;2906;53.282;9.508;2022-12-20T04:23:45;24.73;;;9.82;;
5762;SDS011;2906;53.282;9.508;2022-12-20T04:24:47;28.73;;;10.35;;
5762;SDS011;2906;53.282;9.508;2022-12-20T04:25:51;23.60;;;9.77;;
5762;SDS011;2906;53.282;9.508;2022-12-20T04:26:55;22.50;;;8.88;;
5762;SDS011;2906;53.282;9.508;2022-12-20T04:27:57;32.10;;;9.35;;
5762;SDS011;2906;53.282;9.508;2022-12-20T04:29:00;21.65;;;9.13;;
5762;SDS011;2906;53.282;9.508;2022-12-20T04:30:07;29.40;;;9.40;;
5762;SDS011;2906;53.282;9.508;2022-12-20T04:31:09;24.48;;;8.93;;
5762;SDS011;2906;53.282;9.508;2022-12-20T04:32:13;20.55;;;8.52;;
5762;SDS011;2906;53.282;9.508;2022-12-20T04:33:16;25.88;;;9.85;;
5762;SDS011;2906;53.282;9.508;2022-12-20T04:34:20;25.83;;;9.93;;
5762;SDS011;2906;53.282;9.508;2022-12-20T04:35:22;22.17;;;8.57;;
5762;SDS011;2906;53.282;9.508;2022-12-20T04:36:25;25.88;;;9.85;;
5762;SDS011;2906;53.282;9.508;2022-12-20T04:37:27;25.77;;;9.35;;
5762;SDS011;2906;53.282;9.508;2022-12-20T04:38:31;25.70;;;9.63;;
5762;SDS011;2906;53.282;9.508;2022-12-20T04:39:33;20.92;;;9.30;;
5762;SDS011;2906;53.282;9.508;2022-12-20T04:40:37;22.75;;;9.20;;
5762;SDS011;2906;53.282;9.508;2022-12-20T04:41:41;22.35;;;8.93;;
5762;SDS011;2906;53.282;9.508;2022-12-20T04:42:42;22.20;;;9.07;;
5762;SDS011;2906;53.282;9.508;2022-12-20T04:43:44;23.30;;;9.13;;
5762;SDS011;2906;53.282;9.508;2022-12-20T04:44:45;22.98;;;9.80;;
5762;SDS011;2906;53.282;9.508;2022-12-20T04:45:48;26.30;;;9.50;;
5762;SDS011;2906;53.282;9.508;2022-12-20T04:46:50;27.65;;;10.65;;
5762;SDS011;2906;53.282;9.508;2022-12-20T04:47:54;25.63;;;10.73;;
5762;SDS011;2906;53.282;9.508;2022-12-20T04:48:57;24.70;;;9.50;;
5762;SDS011;2906;53.282;9.508;2022-12-20T04:49:59;27.17;;;10.57;;
5762;SDS011;2906;53.282;9.508;2022-12-20T04:51:01;23.20;;;9.25;;
5762;SDS011;2906;53.282;9.508;2022-12-20T04:52:06;22.45;;;10.27;;
5762;SDS011;2906;53.282;9.508;2022-12-20T04:53:23;22.73;;;9.15;;
5762;SDS011;2906;53.282;9.508;2022-12-20T04:54:39;27.13;;;9.80;;
5762;SDS011;2906;53.282;9.508;2022-12-20T04:55:40;25.83;;;9.90;;
5762;SDS011;2906;53.282;9.508;2022-12-20T04:56:42;23.92;;;9.52;;
5762;SDS011;2906;53.282;9.508;2022-12-20T04:57:48;28.48;;;10.40;;
5762;SDS011;2906;53.282;9.508;2022-12-20T04:58:50;30.10;;;9.63;;
5762;SDS011;2906;53.282;9.508;2022-12-20T04:59:52;26.15;;;10.07;;
5762;SDS011;2906;53.282;9.508;2022-12-20T05:00:54;22.15;;;9.75;;
5762;SDS011;2906;53.282;9.508;2022-12-20T05:01:56;23.73;;;9.82;;
5762;SDS011;2906;53.282;9.508;2022-12-20T05:02:57;28.40;;;10.00;;
5762;SDS011;2906;53.282;9.508;2022-12-20T05:03:59;24.95;;;10.15;;
5762;SDS011;2906;53.282;9.508;2022-12-20T05:05:02;25.63;;;10.30;;
5762;SDS011;2906;53.282;9.508;2022-12-20T05:06:03;23.23;;;10.07;;
5762;SDS011;2906;53.282;9.508;2022-12-20T05:07:07;23.00;;;9.80;;
5762;SDS011;2906;53.282;9.508;2022-12-20T05:08:08;22.58;;;9.68;;
5762;SDS011;2906;53.282;9.508;2022-12-20T05:09:11;23.35;;;10.38;;
5762;SDS011;2906;53.282;9.508;2022-12-20T05:10:13;24.42;;;9.20;;
5762;SDS011;2906;53.282;9.508;2022-12-20T05:11:15;28.60;;;10.60;;
5762;SDS011;2906;53.282;9.508;2022-12-20T05:12:17;25.83;;;10.38;;
5762;SDS011;2906;53.282;9.508;2022-12-20T05:13:19;23.33;;;9.85;;
5762;SDS011;2906;53.282;9.508;2022-12-20T05:14:21;23.80;;;10.30;;
5762;SDS011;2906;53.282;9.508;2022-12-20T05:15:22;24.42;;;9.70;;
5762;SDS011;2906;53.282;9.508;2022-12-20T05:16:24;23.60;;;10.65;;
5762;SDS011;2906;53.282;9.508;2022-12-20T05:17:27;24.95;;;10.50;;
5762;SDS011;2906;53.282;9.508;2022-12-20T05:18:29;25.90;;;11.05;;
5762;SDS011;2906;53.282;9.508;2022-12-20T05:19:31;24.70;;;10.25;;
5762;SDS011;2906;53.282;9.508;2022-12-20T05:20:33;25.20;;;9.38;;
5762;SDS011;2906;53.282;9.508;2022-12-20T05:21:35;27.23;;;10.63;;
5762;SDS011;2906;53.282;9.508;2022-12-20T05:22:52;26.38;;;10.93;;
5762;SDS011;2906;53.282;9.508;2022-12-20T05:24:10;25.83;;;9.40;;
5762;SDS011;2906;53.282;9.508;2022-12-20T05:25:26;24.20;;;10.25;;
5762;SDS011;2906;53.282;9.508;2022-12-20T05:26:42;26.70;;;10.70;;
5762;SDS011;2906;53.282;9.508;2022-12-20T05:27:44;21.95;;;10.00;;
5762;SDS011;2906;53.282;9.508;2022-12-20T05:28:46;25.20;;;10.45;;
5762;SDS011;2906;53.282;9.508;2022-12-20T05:29:52;27.73;;;11.02;;
5762;SDS011;2906;53.282;9.508;2022-12-20T05:30:56;22.75;;;10.18;;
5762;SDS011;2906;53.282;9.508;2022-12-20T05:31:58;26.70;;;9.23;;
5762;SDS011;2906;53.282;9.508;2022-12-20T05:32:59;23.50;;;9.20;;
5762;SDS011;2906;53.282;9.508;2022-12-20T05:34:04;26.67;;;9.50;;
5762;SDS011;2906;53.282;9.508;2022-12-20T05:35:05;25.00;;;10.30;;
5762;SDS011;2906;53.282;9.508;2022-12-20T05:36:09;24.92;;;9.55;;
5762;SDS011;2906;53.282;9.508;2022-12-20T05:37:12;22.10;;;8.43;;
5762;SDS011;2906;53.282;9.508;2022-12-20T05:38:16;23.95;;;10.00;;
5762;SDS011;2906;53.282;9.508;2022-12-20T05:39:17;26.48;;;9.38;;
5762;SDS011;2906;53.282;9.508;2022-12-20T05:40:19;23.15;;;9.27;;
5762;SDS011;2906;53.282;9.508;2022-12-20T05:41:23;23.98;;;8.52;;
5762;SDS011;2906;53.282;9.508;2022-12-20T05:42:27;32.70;;;9.50;;
5762;SDS011;2906;53.282;9.508;2022-12-20T05:43:28;29.55;;;9.82;;
5762;SDS011;2906;53.282;9.508;2022-12-20T05:44:32;22.45;;;8.30;;
5762;SDS011;2906;53.282;9.508;2022-12-20T05:45:35;29.48;;;8.98;;
5762;SDS011;2906;53.282;9.508;2022-12-20T05:46:36;26.02;;;10.68;;
5762;SDS011;2906;53.282;9.508;2022-12-20T05:47:38;26.63;;;9.48;;
5762;SDS011;2906;53.282;9.508;2022-12-20T05:48:39;25.35;;;8.93;;
5762;SDS011;2906;53.282;9.508;2022-12-20T05:49:41;30.05;;;8.68;;
5762;SDS011;2906;53.282;9.508;2022-12-20T05:50:43;33.60;;;9.75;;
5762;SDS011;2906;53.282;9.508;2022-12-20T05:51:45;20.67;;;8.93;;
5762;SDS011;2906;53.282;9.508;2022-12-20T05:52:46;22.80;;;9.13;;
5762;SDS011;2906;53.282;9.508;2022-12-20T05:53:50;25.85;;;10.27;;
5762;SDS011;2906;53.282;9.508;2022-12-20T05:54:52;23.75;;;8.52;;
5762;SDS011;2906;53.282;9.508;2022-12-20T05:55:53;28.00;;;9.35;;
5762;SDS011;2906;53.282;9.508;2022-12-20T05:56:56;21.70;;;8.00;;
5762;SDS011;2906;53.282;9.508;2022-12-20T05:57:57;23.90;;;8.80;;
5762;SDS011;2906;53.282;9.508;2022-12-20T05:58:59;25.92;;;10.13;;
5762;SDS011;2906;53.282;9.508;2022-12-20T06:00:02;24.90;;;8.82;;
5762;SDS011;2906;53.282;9.508;2022-12-20T06:03:12;20.33;;;8.95;;
5762;SDS011;2906;53.282;9.508;2022-12-20T06:06:15;23.83;;;8.57;;
5762;SDS011;2906;53.282;9.508;2022-12-20T06:07:17;25.67;;;9.70;;
5762;SDS011;2906;53.282;9.508;2022-12-20T06:08:20;21.08;;;9.63;;
5762;SDS011;2906;53.282;9.508;2022-12-20T06:09:24;23.55;;;9.27;;
5762;SDS011;2906;53.282;9.508;2022-12-20T06:10:25;24.13;;;9.27;;
5762;SDS011;2906;53.282;9.508;2022-12-20T06:11:27;27.55;;;10.40;;
5762;SDS011;2906;53.282;9.508;2022-12-20T06:12:29;23.02;;;9.82;;
5762;SDS011;2906;53.282;9.508;2022-12-20T06:13:31;24.55;;;10.05;;
5762;SDS011;2906;53.282;9.508;2022-12-20T06:14:35;25.05;;;9.75;;
5762;SDS011;2906;53.282;9.508;2022-12-20T06:15:39;26.13;;;10.15;;
5762;SDS011;2906;53.282;9.508;2022-12-20T06:16:40;28.55;;;11.98;;
5762;SDS011;2906;53.282;9.508;2022-12-20T06:17:43;35.58;;;11.65;;
5762;SDS011;2906;53.282;9.508;2022-12-20T06:18:47;27.33;;;12.38;;
5762;SDS011;2906;53.282;9.508;2022-12-20T06:19:49;28.08;;;11.88;;
5762;SDS011;2906;53.282;9.508;2022-12-20T06:20:51;29.35;;;12.05;;
5762;SDS011;2906;53.282;9.508;2022-12-20T06:21:55;27.95;;;10.27;;
5762;SDS011;2906;53.282;9.508;2022-12-20T06:23:00;29.30;;;11.20;;
5762;SDS011;2906;53.282;9.508;2022-12-20T06:24:02;28.08;;;10.65;;
5762;SDS011;2906;53.282;9.508;2022-12-20T06:25:05;25.35;;;11.13;;
5762;SDS011;2906;53.282;9.508;2022-12-20T06:26:08;24.88;;;9.90;;
5762;SDS011;2906;53.282;9.508;2022-12-20T06:27:09;27.10;;;10.52;;
5762;SDS011;2906;53.282;9.508;2022-12-20T06:28:12;23.30;;;9.80;;
5762;SDS011;2906;53.282;9.508;2022-12-20T06:29:15;27.45;;;11.63;;
5762;SDS011;2906;53.282;9.508;2022-12-20T06:30:19;33.67;;;11.50;;
5762;SDS011;2906;53.282;9.508;2022-12-20T06:31:21;29.70;;;11.45;;
5762;SDS011;2906;53.282;9.508;2022-12-20T06:32:23;24.02;;;9.73;;